createdAt,value
2019-05-09T00:00:59.357Z,13.31
2019-05-09T00:01:59.324Z,13.28
2019-05-09T00:02:59.331Z,13.20
2019-05-09T00:03:59.340Z,13.13
2019-05-09T00:04:59.315Z,13.16
2019-05-09T00:05:59.314Z,13.15
2019-05-09T00:06:59.478Z,13.13
2019-05-09T00:07:59.260Z,13.05
2019-05-09T00:08:59.255Z,13.12
2019-05-09T00:09:59.242Z,13.00
2019-05-09T00:10:59.226Z,13.11
2019-05-09T00:12:03.534Z,13.08
2019-05-09T00:12:59.202Z,13.03
2019-05-09T00:13:59.198Z,13.04
2019-05-09T00:14:59.197Z,13.03
2019-05-09T00:15:59.190Z,13.04
2019-05-09T00:16:59.198Z,13.01
2019-05-09T00:17:59.194Z,13.01
2019-05-09T00:18:59.145Z,13.08
2019-05-09T00:19:59.135Z,13.00
2019-05-09T00:20:59.115Z,13.01
2019-05-09T00:21:59.119Z,13.03
2019-05-09T00:22:59.101Z,13.00
2019-05-09T00:23:59.102Z,12.94
2019-05-09T00:24:59.070Z,13.01
2019-05-09T00:25:59.072Z,13.01
2019-05-09T00:26:59.058Z,12.97
2019-05-09T00:27:59.051Z,12.94
2019-05-09T00:28:59.079Z,12.90
2019-05-09T00:29:59.021Z,12.95
2019-05-09T00:30:59.009Z,12.93
2019-05-09T00:31:59.000Z,12.95
2019-05-09T00:32:58.990Z,12.97
2019-05-09T00:33:58.995Z,12.95
2019-05-09T00:34:59.000Z,12.94
2019-05-09T00:35:58.959Z,12.94
2019-05-09T00:36:58.945Z,12.86
2019-05-09T00:37:58.928Z,12.85
2019-05-09T00:38:58.940Z,12.90
2019-05-09T00:39:59.084Z,12.86
2019-05-09T00:40:59.211Z,12.85
2019-05-09T00:41:58.974Z,12.82
2019-05-09T00:42:58.932Z,12.87
2019-05-09T00:43:58.876Z,12.87
2019-05-09T00:44:58.892Z,12.87
2019-05-09T00:45:58.844Z,12.82
2019-05-09T00:46:58.832Z,12.83
2019-05-09T00:47:58.824Z,12.80
2019-05-09T00:48:58.817Z,12.85
2019-05-09T00:50:05.317Z,12.82
2019-05-09T00:50:58.805Z,12.91
2019-05-09T00:51:58.782Z,12.83
2019-05-09T00:52:58.767Z,12.76
2019-05-09T00:53:58.762Z,12.76
2019-05-09T00:54:58.753Z,12.78
2019-05-09T00:55:58.752Z,12.76
2019-05-09T00:56:58.726Z,12.75
2019-05-09T00:57:58.718Z,12.78
2019-05-09T00:58:58.711Z,12.78
2019-05-09T00:59:58.710Z,12.80
2019-05-09T01:00:58.715Z,12.76
2019-05-09T01:01:58.681Z,12.76
2019-05-09T01:02:58.652Z,12.76
2019-05-09T01:03:58.654Z,12.75
2019-05-09T01:04:58.635Z,12.79
2019-05-09T01:05:58.637Z,12.73
2019-05-09T01:06:58.673Z,12.79
2019-05-09T01:07:58.608Z,12.76
2019-05-09T01:08:58.617Z,12.75
2019-05-09T01:09:58.590Z,12.76
2019-05-09T01:11:09.373Z,12.79
2019-05-09T01:11:59.563Z,12.79
2019-05-09T01:12:58.548Z,12.90
2019-05-09T01:13:58.573Z,12.80
2019-05-09T01:14:58.528Z,12.87
2019-05-09T01:15:58.519Z,12.83
2019-05-09T01:16:58.515Z,12.83
2019-05-09T01:17:58.493Z,12.87
2019-05-09T01:18:58.479Z,12.94
2019-05-09T01:19:58.507Z,12.91
2019-05-09T01:20:58.463Z,12.90
2019-05-09T01:21:58.445Z,12.91
2019-05-09T01:22:58.455Z,12.93
2019-05-09T01:23:58.423Z,12.83
2019-05-09T01:24:58.414Z,12.87
2019-05-09T01:25:58.439Z,12.82
2019-05-09T01:26:58.397Z,12.76
2019-05-09T01:27:58.378Z,12.65
2019-05-09T01:28:58.368Z,12.49
2019-05-09T01:29:58.354Z,12.60
2019-05-09T01:30:58.361Z,12.55
2019-05-09T01:31:58.352Z,12.50
2019-05-09T01:32:58.365Z,12.49
2019-05-09T01:33:58.332Z,12.53
2019-05-09T01:34:58.316Z,12.58
2019-05-09T01:35:58.313Z,12.49
2019-05-09T01:36:58.295Z,12.49
2019-05-09T01:37:58.265Z,12.47
2019-05-09T01:38:58.288Z,12.55
2019-05-09T01:39:58.261Z,12.55
2019-05-09T01:40:58.230Z,12.53
2019-05-09T01:41:58.223Z,12.53
2019-05-09T01:42:58.222Z,12.49
2019-05-09T01:43:58.199Z,12.47
2019-05-09T01:44:58.478Z,12.49
2019-05-09T01:45:58.192Z,12.49
2019-05-09T01:46:58.169Z,12.55
2019-05-09T01:47:58.166Z,12.55
2019-05-09T01:48:58.140Z,12.55
2019-05-09T01:49:58.171Z,12.55
2019-05-09T01:50:58.128Z,12.45
2019-05-09T01:51:58.121Z,12.49
2019-05-09T01:52:58.097Z,12.49
2019-05-09T01:53:58.092Z,12.53
2019-05-09T01:54:58.081Z,12.50
2019-05-09T01:55:58.103Z,12.55
2019-05-09T01:56:58.097Z,12.54
2019-05-09T01:57:58.050Z,12.53
2019-05-09T01:58:58.037Z,12.50
2019-05-09T01:59:58.020Z,12.50
2019-05-09T02:00:58.054Z,12.57
2019-05-09T02:01:58.014Z,12.50
2019-05-09T02:02:58.009Z,12.60
2019-05-09T02:03:58.011Z,12.58
2019-05-09T02:04:57.970Z,12.57
2019-05-09T02:05:57.954Z,12.50
2019-05-09T02:06:57.986Z,12.54
2019-05-09T02:07:57.942Z,12.53
2019-05-09T02:08:57.942Z,12.58
2019-05-09T02:09:57.929Z,12.57
2019-05-09T02:10:57.912Z,12.57
2019-05-09T02:11:57.889Z,12.58
2019-05-09T02:12:57.929Z,12.53
2019-05-09T02:13:57.893Z,12.54
2019-05-09T02:14:57.865Z,12.55
2019-05-09T02:15:57.845Z,12.55
2019-05-09T02:16:57.840Z,12.61
2019-05-09T02:18:01.788Z,12.60
2019-05-09T02:19:00.599Z,12.55
2019-05-09T02:19:57.824Z,12.58
2019-05-09T02:20:57.797Z,12.55
2019-05-09T02:21:57.782Z,12.65
2019-05-09T02:22:57.776Z,12.67
2019-05-09T02:23:57.757Z,12.54
2019-05-09T02:24:57.788Z,12.55
2019-05-09T02:25:57.749Z,12.53
2019-05-09T02:26:57.719Z,12.62
2019-05-09T02:27:57.721Z,12.65
2019-05-09T02:28:57.700Z,12.61
2019-05-09T02:29:57.699Z,12.64
2019-05-09T02:30:57.715Z,12.60
2019-05-09T02:31:57.685Z,12.67
2019-05-09T02:32:57.663Z,12.64
2019-05-09T02:33:57.653Z,12.49
2019-05-09T02:34:57.632Z,12.54
2019-05-09T02:36:01.674Z,12.57
2019-05-09T02:36:58.662Z,12.50
2019-05-09T02:37:58.725Z,12.53
2019-05-09T02:38:59.109Z,12.58
2019-05-09T02:39:59.162Z,12.53
2019-05-09T02:40:59.524Z,12.62
2019-05-09T02:42:04.910Z,12.62
2019-05-09T02:42:59.117Z,12.60
2019-05-09T02:43:58.587Z,12.53
2019-05-09T02:44:59.527Z,12.50
2019-05-09T02:45:59.402Z,12.54
2019-05-09T02:46:58.890Z,12.61
2019-05-09T02:47:59.069Z,12.72
2019-05-09T02:48:59.419Z,12.65
2019-05-09T02:49:58.940Z,12.65
2019-05-09T02:51:00.196Z,12.58
2019-05-09T02:51:59.310Z,12.61
2019-05-09T02:52:59.087Z,12.65
2019-05-09T02:53:58.521Z,12.62
2019-05-09T02:54:58.338Z,12.64
2019-05-09T02:55:58.440Z,12.64
2019-05-09T02:56:58.214Z,12.65
2019-05-09T02:57:59.218Z,12.60
2019-05-09T02:58:58.916Z,12.65
2019-05-09T02:59:59.266Z,12.65
2019-05-09T03:00:59.641Z,12.64
2019-05-09T03:01:58.609Z,12.78
2019-05-09T03:02:59.615Z,12.75
2019-05-09T03:03:58.894Z,12.70
2019-05-09T03:04:58.203Z,12.67
2019-05-09T03:05:59.680Z,12.70
2019-05-09T03:06:59.768Z,12.68
2019-05-09T03:07:58.387Z,12.65
2019-05-09T03:08:59.404Z,12.65
2019-05-09T03:09:58.260Z,12.62
2019-05-09T03:10:59.103Z,12.76
2019-05-09T03:11:58.835Z,12.64
2019-05-09T03:12:59.317Z,12.67
2019-05-09T03:13:58.539Z,12.67
2019-05-09T03:14:58.720Z,12.76
2019-05-09T03:15:58.680Z,12.76
2019-05-09T03:16:58.597Z,12.75
2019-05-09T03:17:59.876Z,12.64
2019-05-09T03:18:58.434Z,12.65
2019-05-09T03:19:58.647Z,12.67
2019-05-09T03:20:58.581Z,12.61
2019-05-09T03:21:58.497Z,12.68
2019-05-09T03:22:58.328Z,12.65
2019-05-09T03:23:59.149Z,12.62
2019-05-09T03:24:58.811Z,12.60
2019-05-09T03:25:58.820Z,12.65
2019-05-09T03:26:59.549Z,12.65
2019-05-09T03:27:58.738Z,12.67
2019-05-09T03:28:59.069Z,12.65
2019-05-09T03:29:58.927Z,12.65
2019-05-09T03:30:59.270Z,12.50
2019-05-09T03:32:00.088Z,12.60
2019-05-09T03:32:59.574Z,12.65
2019-05-09T03:33:59.502Z,12.60
2019-05-09T03:34:58.054Z,12.55
2019-05-09T03:35:57.440Z,12.53
2019-05-09T03:36:58.081Z,12.47
2019-05-09T03:37:57.263Z,12.57
2019-05-09T03:38:57.859Z,12.49
2019-05-09T03:39:58.122Z,12.58
2019-05-09T03:40:58.012Z,12.58
2019-05-09T03:41:57.517Z,12.54
2019-05-09T03:42:57.471Z,12.55
2019-05-09T03:43:58.539Z,12.53
2019-05-09T03:44:58.139Z,12.54
2019-05-09T03:45:58.509Z,12.58
2019-05-09T03:46:58.068Z,12.60
2019-05-09T03:47:58.257Z,12.50
2019-05-09T03:48:58.260Z,12.49
2019-05-09T03:49:58.689Z,12.55
2019-05-09T03:50:57.723Z,12.65
2019-05-09T03:51:58.484Z,12.49
2019-05-09T03:52:57.990Z,12.61
2019-05-09T03:53:57.574Z,12.53
2019-05-09T03:54:57.932Z,12.60
2019-05-09T03:55:57.565Z,12.57
2019-05-09T03:56:57.267Z,12.62
2019-05-09T03:57:58.064Z,12.54
2019-05-09T03:58:57.851Z,12.53
2019-05-09T03:59:57.255Z,12.62
2019-05-09T04:00:58.012Z,12.60
2019-05-09T04:01:58.958Z,12.54
2019-05-09T04:02:58.051Z,12.68
2019-05-09T04:03:58.418Z,12.53
2019-05-09T04:04:57.737Z,12.58
2019-05-09T04:06:02.557Z,12.53
2019-05-09T04:06:58.201Z,12.60
2019-05-09T04:07:58.224Z,12.50
2019-05-09T04:08:58.509Z,12.61
2019-05-09T04:09:58.509Z,12.58
2019-05-09T04:10:58.654Z,12.58
2019-05-09T04:11:59.883Z,12.57
2019-05-09T04:12:59.479Z,12.57
2019-05-09T04:13:58.151Z,12.61
2019-05-09T04:14:58.389Z,12.64
2019-05-09T04:15:58.237Z,12.64
2019-05-09T04:16:57.548Z,12.67
2019-05-09T04:17:57.864Z,12.75
2019-05-09T04:18:58.180Z,12.75
2019-05-09T04:19:57.843Z,12.79
2019-05-09T04:20:57.355Z,12.82
2019-05-09T04:21:57.593Z,12.93
2019-05-09T04:22:59.321Z,13.00
2019-05-09T04:23:58.497Z,13.01
2019-05-09T04:24:57.654Z,13.00
2019-05-09T04:25:58.327Z,13.01
2019-05-09T04:26:57.552Z,13.04
2019-05-09T04:27:58.278Z,13.22
2019-05-09T04:28:57.819Z,13.19
2019-05-09T04:29:57.446Z,13.16
2019-05-09T04:30:58.112Z,13.13
2019-05-09T04:31:57.481Z,13.12
2019-05-09T04:32:58.133Z,13.13
2019-05-09T04:33:57.447Z,13.12
2019-05-09T04:34:57.810Z,13.05
2019-05-09T04:35:57.932Z,13.08
2019-05-09T04:36:57.618Z,13.13
2019-05-09T04:37:58.311Z,13.11
2019-05-09T04:38:57.819Z,13.05
2019-05-09T04:39:59.495Z,13.05
2019-05-09T04:40:58.434Z,13.12
2019-05-09T04:42:03.580Z,13.13
2019-05-09T04:43:10.826Z,13.09
2019-05-09T04:43:57.513Z,13.18
2019-05-09T04:45:02.729Z,13.11
2019-05-09T04:45:57.889Z,13.12
2019-05-09T04:47:00.103Z,13.08
2019-05-09T04:47:57.758Z,13.01
2019-05-09T04:48:59.363Z,13.01
2019-05-09T04:49:58.415Z,13.13
2019-05-09T04:50:59.317Z,13.04
2019-05-09T04:51:58.268Z,13.15
2019-05-09T04:52:57.983Z,13.05
2019-05-09T04:53:58.296Z,13.05
2019-05-09T04:54:57.610Z,13.03
2019-05-09T04:55:58.056Z,13.01
2019-05-09T04:56:57.414Z,13.01
2019-05-09T04:57:57.215Z,13.08
2019-05-09T04:58:58.184Z,13.16
2019-05-09T04:59:57.553Z,13.11
2019-05-09T05:00:57.309Z,13.11
2019-05-09T05:01:58.148Z,13.27
2019-05-09T05:02:57.593Z,13.31
2019-05-09T05:03:57.313Z,13.33
2019-05-09T05:04:58.374Z,13.30
2019-05-09T05:05:58.197Z,13.35
2019-05-09T05:06:57.860Z,13.44
2019-05-09T05:07:57.329Z,13.38
2019-05-09T05:08:58.394Z,13.56
2019-05-09T05:09:57.612Z,13.50
2019-05-09T05:10:58.103Z,13.38
2019-05-09T05:11:58.080Z,13.37
2019-05-09T05:12:57.310Z,13.33
2019-05-09T05:13:58.391Z,13.30
2019-05-09T05:14:57.935Z,13.31
2019-05-09T05:15:57.803Z,13.31
2019-05-09T05:17:05.435Z,13.25
2019-05-09T05:17:58.277Z,13.23
2019-05-09T05:18:58.169Z,13.27
2019-05-09T05:19:57.888Z,13.31
2019-05-09T05:20:57.592Z,13.11
2019-05-09T05:21:55.812Z,13.15
2019-05-09T05:22:57.933Z,13.16
2019-05-09T05:23:57.696Z,13.08
2019-05-09T05:24:59.310Z,13.12
2019-05-09T05:25:57.861Z,13.12
2019-05-09T05:26:57.877Z,13.19
2019-05-09T05:27:58.024Z,13.12
2019-05-09T05:28:57.463Z,13.16
2019-05-09T05:29:58.120Z,13.19
2019-05-09T05:30:58.064Z,13.27
2019-05-09T05:31:57.502Z,13.38
2019-05-09T05:32:57.854Z,13.50
2019-05-09T05:33:57.755Z,13.49
2019-05-09T05:34:57.276Z,13.39
2019-05-09T05:35:57.411Z,13.47
2019-05-09T05:36:58.040Z,13.53
2019-05-09T05:37:57.939Z,13.49
2019-05-09T05:38:55.624Z,13.53
2019-05-09T05:39:55.642Z,13.54
2019-05-09T05:40:57.819Z,13.50
2019-05-09T05:41:57.676Z,13.44
2019-05-09T05:42:58.331Z,13.42
2019-05-09T05:43:57.867Z,13.47
2019-05-09T05:44:55.562Z,13.54
2019-05-09T05:45:55.547Z,13.49
2019-05-09T05:46:55.572Z,13.54
2019-05-09T05:47:57.478Z,13.56
2019-05-09T05:48:57.638Z,13.59
2019-05-09T05:49:57.637Z,13.62
2019-05-09T05:50:57.651Z,13.60
2019-05-09T05:51:57.533Z,13.65
2019-05-09T05:52:57.622Z,13.72
2019-05-09T05:53:57.337Z,13.71
2019-05-09T05:54:55.450Z,13.72
2019-05-09T05:55:57.877Z,13.74
2019-05-09T05:56:57.538Z,13.71
2019-05-09T05:57:57.734Z,13.72
2019-05-09T05:58:57.846Z,13.78
2019-05-09T05:59:55.384Z,13.71
2019-05-09T06:00:55.377Z,13.63
2019-05-09T06:01:55.363Z,13.68
2019-05-09T06:02:55.364Z,13.67
2019-05-09T06:03:55.346Z,13.74
2019-05-09T06:04:57.773Z,13.70
2019-05-09T06:05:55.318Z,13.68
2019-05-09T06:06:55.307Z,13.70
2019-05-09T06:07:57.452Z,13.63
2019-05-09T06:08:57.738Z,13.71
2019-05-09T06:09:57.415Z,13.59
2019-05-09T06:10:57.473Z,13.52
2019-05-09T06:11:57.666Z,13.54
2019-05-09T06:12:57.376Z,13.52
2019-05-09T06:14:00.167Z,13.49
2019-05-09T06:14:58.234Z,13.57
2019-05-09T06:15:55.206Z,13.59
2019-05-09T06:16:55.275Z,13.65
2019-05-09T06:17:57.650Z,13.75
2019-05-09T06:18:55.171Z,13.79
2019-05-09T06:19:55.164Z,13.72
2019-05-09T06:20:55.171Z,13.72
2019-05-09T06:21:57.233Z,13.89
2019-05-09T06:22:55.120Z,14.08
2019-05-09T06:23:55.153Z,14.04
2019-05-09T06:24:55.101Z,14.07
2019-05-09T06:25:55.090Z,14.18
2019-05-09T06:26:55.093Z,14.32
2019-05-09T06:27:55.092Z,14.29
2019-05-09T06:28:55.053Z,14.28
2019-05-09T06:29:55.076Z,14.23
2019-05-09T06:30:55.035Z,14.26
2019-05-09T06:31:55.048Z,14.14
2019-05-09T06:32:55.020Z,14.17
2019-05-09T06:33:57.598Z,14.28
2019-05-09T06:34:54.995Z,14.50
2019-05-09T06:35:54.997Z,14.54
2019-05-09T06:36:58.198Z,14.53
2019-05-09T06:37:54.974Z,14.48
2019-05-09T06:38:55.017Z,14.47
2019-05-09T06:39:54.939Z,14.48
2019-05-09T06:40:54.923Z,14.54
2019-05-09T06:41:57.360Z,14.53
2019-05-09T06:42:55.012Z,14.36
2019-05-09T06:44:12.632Z,14.25
2019-05-09T06:44:58.219Z,14.43
2019-05-09T06:45:57.491Z,14.41
2019-05-09T06:46:54.876Z,14.33
2019-05-09T06:47:54.856Z,14.28
2019-05-09T06:49:17.957Z,14.32
2019-05-09T06:49:57.416Z,14.45
2019-05-09T06:50:54.804Z,14.45
2019-05-09T06:51:54.803Z,14.45
2019-05-09T06:52:54.796Z,14.29
2019-05-09T06:53:54.783Z,14.26
2019-05-09T06:54:54.837Z,14.22
2019-05-09T06:55:54.790Z,14.14
2019-05-09T06:56:54.782Z,14.17
2019-05-09T06:57:54.741Z,14.15
2019-05-09T06:58:54.734Z,14.14
2019-05-09T06:59:54.741Z,14.08
2019-05-09T07:00:54.733Z,14.22
2019-05-09T07:01:54.703Z,14.25
2019-05-09T07:02:57.577Z,14.30
2019-05-09T07:03:57.505Z,14.28
2019-05-09T07:04:54.658Z,14.26
2019-05-09T07:05:54.680Z,14.45
2019-05-09T07:06:54.659Z,14.55
2019-05-09T07:07:54.639Z,14.62
2019-05-09T07:08:54.616Z,14.79
2019-05-09T07:09:54.611Z,14.94
2019-05-09T07:10:55.390Z,15.04
2019-05-09T07:11:54.584Z,15.18
2019-05-09T07:12:54.597Z,15.27
2019-05-09T07:13:54.564Z,15.44
2019-05-09T07:14:54.544Z,15.44
2019-05-09T07:15:54.540Z,15.54
2019-05-09T07:16:54.868Z,15.59
2019-05-09T07:17:54.557Z,15.59
2019-05-09T07:18:54.518Z,15.64
2019-05-09T07:19:54.481Z,15.55
2019-05-09T07:20:54.489Z,15.54
2019-05-09T07:21:54.855Z,15.55
2019-05-09T07:22:54.494Z,15.51
2019-05-09T07:23:54.463Z,15.51
2019-05-09T07:24:57.908Z,15.52
2019-05-09T07:25:55.422Z,15.43
2019-05-09T07:26:54.470Z,15.31
2019-05-09T07:27:54.413Z,15.28
2019-05-09T07:28:54.410Z,15.24
2019-05-09T07:29:54.385Z,15.22
2019-05-09T07:30:54.396Z,15.18
2019-05-09T07:31:54.380Z,15.22
2019-05-09T07:32:54.409Z,15.29
2019-05-09T07:33:54.396Z,15.27
2019-05-09T07:34:54.323Z,15.57
2019-05-09T07:35:54.321Z,15.47
2019-05-09T07:36:54.297Z,15.43
2019-05-09T07:37:54.290Z,15.28
2019-05-09T07:38:54.296Z,15.39
2019-05-09T07:39:54.311Z,15.52
2019-05-09T07:40:54.272Z,15.57
2019-05-09T07:41:54.280Z,15.43
2019-05-09T07:42:54.285Z,15.24
2019-05-09T07:43:54.252Z,15.35
2019-05-09T07:44:54.239Z,15.33
2019-05-09T07:45:54.244Z,15.40
2019-05-09T07:46:54.927Z,15.43
2019-05-09T07:47:54.197Z,15.39
2019-05-09T07:48:54.166Z,15.43
2019-05-09T07:49:54.160Z,15.27
2019-05-09T07:50:54.211Z,15.28
2019-05-09T07:51:54.181Z,15.44
2019-05-09T07:52:54.137Z,15.52
2019-05-09T07:53:54.117Z,15.49
2019-05-09T07:54:54.180Z,15.43
2019-05-09T07:55:54.099Z,15.52
2019-05-09T07:56:54.132Z,15.55
2019-05-09T07:57:55.550Z,15.76
2019-05-09T07:58:54.071Z,15.84
2019-05-09T07:59:54.046Z,15.68
2019-05-09T08:00:54.038Z,15.68
2019-05-09T08:01:54.032Z,15.72
2019-05-09T08:02:54.442Z,15.79
2019-05-09T08:03:54.432Z,15.95
2019-05-09T08:04:54.024Z,16.13
2019-05-09T08:05:53.979Z,16.26
2019-05-09T08:06:53.979Z,16.23
2019-05-09T08:07:53.978Z,16.26
2019-05-09T08:08:53.994Z,16.39
2019-05-09T08:09:54.021Z,16.33
2019-05-09T08:10:53.931Z,16.38
2019-05-09T08:11:53.931Z,16.42
2019-05-09T08:12:53.921Z,16.32
2019-05-09T08:13:54.078Z,16.39
2019-05-09T08:15:07.310Z,16.38
2019-05-09T08:15:54.889Z,16.35
2019-05-09T08:16:53.870Z,16.39
2019-05-09T08:17:53.852Z,16.54
2019-05-09T08:18:53.872Z,16.60
2019-05-09T08:19:53.819Z,16.60
2019-05-09T08:20:53.859Z,16.66
2019-05-09T08:21:53.824Z,16.75
2019-05-09T08:22:58.648Z,16.76
2019-05-09T08:23:54.777Z,16.97
2019-05-09T08:24:53.773Z,17.14
2019-05-09T08:25:53.754Z,17.22
2019-05-09T08:26:53.778Z,17.51
2019-05-09T08:27:53.750Z,17.42
2019-05-09T08:28:53.722Z,17.20
2019-05-09T08:29:53.716Z,17.31
2019-05-09T08:30:53.728Z,17.27
2019-05-09T08:31:53.709Z,17.64
2019-05-09T08:32:53.684Z,17.79
2019-05-09T08:33:53.690Z,18.19
2019-05-09T08:34:53.661Z,18.38
2019-05-09T08:35:53.656Z,18.45
2019-05-09T08:36:53.702Z,18.20
2019-05-09T08:37:53.621Z,18.10
2019-05-09T08:38:53.625Z,17.97
2019-05-09T08:39:53.606Z,17.80
2019-05-09T08:40:53.607Z,17.41
2019-05-09T08:41:53.600Z,17.29
2019-05-09T08:42:53.599Z,17.14
2019-05-09T08:43:53.602Z,17.01
2019-05-09T08:44:53.557Z,17.05
2019-05-09T08:45:53.546Z,17.20
2019-05-09T08:46:53.528Z,17.22
2019-05-09T08:47:53.547Z,17.23
2019-05-09T08:48:53.506Z,17.36
2019-05-09T08:49:53.553Z,17.67
2019-05-09T08:50:53.491Z,18.05
2019-05-09T08:52:08.982Z,18.35
2019-05-09T08:52:54.486Z,18.40
2019-05-09T08:53:53.459Z,18.04
2019-05-09T08:54:53.481Z,17.64
2019-05-09T08:55:53.486Z,17.29
2019-05-09T08:56:53.428Z,17.01
2019-05-09T08:57:53.419Z,16.89
2019-05-09T08:58:53.413Z,16.87
2019-05-09T08:59:53.400Z,16.99
2019-05-09T09:00:53.374Z,16.91
2019-05-09T09:02:11.257Z,16.74
2019-05-09T09:02:54.353Z,16.53
2019-05-09T09:03:53.365Z,16.39
2019-05-09T09:04:53.340Z,16.36
2019-05-09T09:05:53.322Z,16.41
2019-05-09T09:06:53.354Z,16.90
2019-05-09T09:07:53.305Z,17.70
2019-05-09T09:08:53.292Z,17.85
2019-05-09T09:09:53.302Z,17.79
2019-05-09T09:10:53.291Z,17.60
2019-05-09T09:11:53.257Z,17.29
2019-05-09T09:12:53.355Z,17.08
2019-05-09T09:13:53.236Z,16.96
2019-05-09T09:14:53.238Z,17.11
2019-05-09T09:16:10.423Z,16.93
2019-05-09T09:16:54.215Z,16.96
2019-05-09T09:17:53.221Z,17.31
2019-05-09T09:18:53.240Z,17.63
2019-05-09T09:19:53.180Z,17.95
2019-05-09T09:20:53.173Z,18.23
2019-05-09T09:21:53.184Z,18.52
2019-05-09T09:22:53.192Z,18.63
2019-05-09T09:23:53.174Z,18.84
2019-05-09T09:24:53.124Z,18.99
2019-05-09T09:25:53.128Z,19.16
2019-05-09T09:26:53.096Z,19.26
2019-05-09T09:27:53.111Z,19.29
2019-05-09T09:28:53.106Z,19.16
2019-05-09T09:29:53.063Z,18.89
2019-05-09T09:30:53.055Z,18.65
2019-05-09T09:31:53.063Z,18.73
2019-05-09T09:32:53.035Z,18.74
2019-05-09T09:33:53.035Z,18.81
2019-05-09T09:34:53.056Z,19.27
2019-05-09T09:35:53.042Z,19.29
2019-05-09T09:36:52.990Z,19.36
2019-05-09T09:37:53.002Z,19.67
2019-05-09T09:38:52.989Z,19.84
2019-05-09T09:39:53.058Z,20.02
2019-05-09T09:40:52.937Z,20.11
2019-05-09T09:41:52.934Z,19.99
2019-05-09T09:42:52.934Z,20.21
2019-05-09T09:43:52.933Z,20.36
2019-05-09T09:44:52.900Z,20.74
2019-05-09T09:46:09.979Z,21.57
2019-05-09T09:46:53.891Z,24.13
2019-05-09T09:47:52.882Z,24.43
2019-05-09T09:48:52.864Z,23.87
2019-05-09T09:49:55.104Z,23.83
2019-05-09T09:50:52.883Z,23.99
2019-05-09T09:51:59.436Z,23.88
2019-05-09T09:52:52.813Z,23.73
2019-05-09T09:53:52.791Z,23.80
2019-05-09T09:54:52.806Z,23.93
2019-05-09T09:55:52.802Z,22.62
2019-05-09T09:56:52.799Z,22.44
2019-05-09T09:57:52.777Z,21.99
2019-05-09T09:58:52.742Z,21.17
2019-05-09T09:59:52.748Z,20.32
2019-05-09T10:00:52.739Z,19.71
2019-05-09T10:01:52.744Z,19.19
2019-05-09T10:02:52.756Z,18.88
2019-05-09T10:03:52.720Z,18.62
2019-05-09T10:04:52.681Z,18.45
2019-05-09T10:05:53.513Z,18.00
2019-05-09T10:06:53.219Z,17.86
2019-05-09T10:07:52.651Z,17.76
2019-05-09T10:08:52.651Z,17.78
2019-05-09T10:09:52.631Z,17.51
2019-05-09T10:10:52.617Z,17.38
2019-05-09T10:11:52.605Z,17.31
2019-05-09T10:12:52.621Z,17.42
2019-05-09T10:13:52.780Z,17.56
2019-05-09T10:14:52.573Z,17.64
2019-05-09T10:15:52.625Z,17.64
2019-05-09T10:16:52.551Z,17.63
2019-05-09T10:17:52.546Z,17.33
2019-05-09T10:18:52.546Z,17.16
2019-05-09T10:19:52.552Z,17.05
2019-05-09T10:20:52.500Z,16.90
2019-05-09T10:21:52.491Z,16.74
2019-05-09T10:23:00.771Z,16.57
2019-05-09T10:23:57.471Z,16.60
2019-05-09T10:24:52.526Z,16.53
2019-05-09T10:25:52.498Z,16.39
2019-05-09T10:26:52.441Z,16.28
2019-05-09T10:27:52.431Z,16.12
2019-05-09T10:28:52.428Z,16.02
2019-05-09T10:29:52.426Z,15.94
2019-05-09T10:30:52.439Z,15.79
2019-05-09T10:31:52.380Z,15.64
2019-05-09T10:32:52.384Z,15.58
2019-05-09T10:33:52.361Z,15.55
2019-05-09T10:34:52.381Z,15.54
2019-05-09T10:35:52.372Z,15.49
2019-05-09T10:36:52.357Z,15.55
2019-05-09T10:37:52.316Z,15.58
2019-05-09T10:38:52.293Z,15.62
2019-05-09T10:39:52.332Z,15.62
2019-05-09T10:40:53.481Z,15.51
2019-05-09T10:41:52.303Z,15.52
2019-05-09T10:42:52.287Z,15.61
2019-05-09T10:43:52.253Z,15.64
2019-05-09T10:44:52.243Z,15.75
2019-05-09T10:45:52.228Z,15.97
2019-05-09T10:46:57.222Z,16.15
2019-05-09T10:47:53.204Z,16.39
2019-05-09T10:48:52.212Z,16.49
2019-05-09T10:49:52.182Z,16.78
2019-05-09T10:50:53.940Z,17.05
2019-05-09T10:51:52.171Z,17.26
2019-05-09T10:52:52.177Z,17.64
2019-05-09T10:53:52.135Z,18.23
2019-05-09T10:54:52.130Z,18.86
2019-05-09T10:55:52.110Z,20.13
2019-05-09T10:56:52.109Z,20.40
2019-05-09T10:57:53.048Z,20.63
2019-05-09T10:58:52.115Z,20.63
2019-05-09T10:59:52.075Z,20.93
2019-05-09T11:00:52.084Z,21.42
2019-05-09T11:01:52.057Z,23.36
2019-05-09T11:02:52.047Z,24.17
2019-05-09T11:03:52.033Z,24.66
2019-05-09T11:04:52.062Z,25.69
2019-05-09T11:05:52.015Z,26.53
2019-05-09T11:06:52.009Z,26.51
2019-05-09T11:07:51.995Z,26.02
2019-05-09T11:08:51.964Z,25.07
2019-05-09T11:09:51.959Z,25.28
2019-05-09T11:10:51.998Z,26.07
2019-05-09T11:11:51.934Z,26.16
2019-05-09T11:12:51.928Z,25.87
2019-05-09T11:13:51.922Z,24.57
2019-05-09T11:14:51.942Z,22.85
2019-05-09T11:15:51.990Z,21.27
2019-05-09T11:17:06.863Z,20.28
2019-05-09T11:17:52.887Z,19.69
2019-05-09T11:18:51.860Z,19.36
2019-05-09T11:19:51.899Z,18.96
2019-05-09T11:20:51.841Z,18.47
2019-05-09T11:21:51.846Z,18.38
2019-05-09T11:22:51.811Z,18.22
2019-05-09T11:23:51.819Z,18.10
2019-05-09T11:24:51.839Z,18.07
2019-05-09T11:25:51.802Z,17.82
2019-05-09T11:26:51.803Z,17.49
2019-05-09T11:28:06.820Z,17.33
2019-05-09T11:28:52.754Z,17.26
2019-05-09T11:29:51.751Z,17.15
2019-05-09T11:30:51.757Z,17.08
2019-05-09T11:31:51.748Z,16.74
2019-05-09T11:32:51.729Z,16.64
2019-05-09T11:33:51.722Z,16.47
2019-05-09T11:34:51.687Z,16.05
2019-05-09T11:35:51.691Z,15.72
2019-05-09T11:36:51.750Z,15.42
2019-05-09T11:37:51.653Z,15.17
2019-05-09T11:38:51.663Z,14.62
2019-05-09T11:39:51.653Z,14.25
2019-05-09T11:40:51.614Z,14.18
2019-05-09T11:41:51.630Z,14.17
2019-05-09T11:42:51.679Z,14.17
2019-05-09T11:43:51.596Z,14.05
2019-05-09T11:44:51.598Z,14.07
2019-05-09T11:45:51.619Z,14.04
2019-05-09T11:46:51.575Z,14.00
2019-05-09T11:47:51.589Z,14.03
2019-05-09T11:48:51.526Z,13.97
2019-05-09T11:49:51.540Z,14.07
2019-05-09T11:50:51.534Z,14.07
2019-05-09T11:51:51.500Z,14.05
2019-05-09T11:52:51.507Z,14.18
2019-05-09T11:53:51.691Z,14.26
2019-05-09T11:54:51.461Z,14.10
2019-05-09T11:55:51.469Z,14.12
2019-05-09T11:56:51.443Z,14.32
2019-05-09T11:57:51.462Z,14.32
2019-05-09T11:58:51.456Z,14.47
2019-05-09T11:59:51.412Z,14.62
2019-05-09T12:00:51.432Z,14.86
2019-05-09T12:01:51.401Z,15.06
2019-05-09T12:02:51.398Z,15.24
2019-05-09T12:03:52.332Z,15.22
2019-05-09T12:04:51.358Z,15.17
2019-05-09T12:05:51.337Z,15.09
2019-05-09T12:06:51.342Z,15.35
2019-05-09T12:07:51.340Z,15.54
2019-05-09T12:08:51.350Z,16.02
2019-05-09T12:09:51.307Z,16.53
2019-05-09T12:10:51.288Z,17.04
2019-05-09T12:11:51.278Z,18.19
2019-05-09T12:12:51.273Z,19.04
2019-05-09T12:13:51.270Z,19.63
2019-05-09T12:14:51.426Z,19.74
2019-05-09T12:15:51.244Z,19.59
2019-05-09T12:16:51.261Z,19.49
2019-05-09T12:17:58.177Z,19.47
2019-05-09T12:18:52.238Z,18.88
2019-05-09T12:19:51.218Z,18.81
2019-05-09T12:20:51.216Z,18.44
2019-05-09T12:21:51.183Z,18.38
2019-05-09T12:22:51.156Z,18.45
2019-05-09T12:23:51.140Z,18.86
2019-05-09T12:24:53.822Z,19.66
2019-05-09T12:25:51.185Z,20.31
2019-05-09T12:26:51.135Z,21.46
2019-05-09T12:27:51.171Z,22.07
2019-05-09T12:28:51.087Z,22.41
2019-05-09T12:29:51.132Z,22.78
2019-05-09T12:30:51.088Z,22.53
2019-05-09T12:31:51.065Z,22.59
2019-05-09T12:32:51.053Z,23.44
2019-05-09T12:33:51.044Z,24.21
2019-05-09T12:34:51.021Z,24.42
2019-05-09T12:35:51.050Z,24.21
2019-05-09T12:36:51.061Z,24.05
2019-05-09T12:37:51.018Z,24.05
2019-05-09T12:38:50.999Z,23.77
2019-05-09T12:39:50.988Z,23.78
2019-05-09T12:40:51.049Z,23.99
2019-05-09T12:41:51.082Z,24.26
2019-05-09T12:42:50.962Z,24.50
2019-05-09T12:43:50.926Z,24.54
2019-05-09T12:44:51.037Z,24.21
2019-05-09T12:45:50.906Z,24.28
2019-05-09T12:46:50.894Z,24.03
2019-05-09T12:48:06.053Z,24.01
2019-05-09T12:48:51.901Z,23.43
2019-05-09T12:49:50.897Z,22.96
2019-05-09T12:50:50.865Z,22.63
2019-05-09T12:51:50.917Z,22.30
2019-05-09T12:52:50.837Z,22.04